This is the latest recevied weather packets stored in our database for station/object OE5XFR. If no packets are shown the sender has not sent any weather packets the latest 10 day(s).
| Time | Temp. | Humidity | Pressure | Rain* | Wind** | Luminosity | Snow |
|---|---|---|---|---|---|---|---|
| 1777833915 | 21.11° C | 27% | 1013 hPa | 0 mm | - | - | - |
| 1777833194 | 22.78° C | 20% | 1013 hPa | 0 mm | - | - | - |
| 1777832475 | 22.78° C | 20% | 1013 hPa | 0 mm | - | - | - |
| 1777831755 | 23.33° C | 19% | 1013 hPa | 0 mm | - | - | - |
| 1777831034 | 23.33° C | 19% | 1013 hPa | 0 mm | - | - | - |
| 1777830314 | 23.33° C | 19% | 1013 hPa | 0 mm | - | - | - |
| 1777829595 | 23.33° C | 18% | 1013 hPa | 0 mm | - | - | - |
| 1777828874 | 23.89° C | 18% | 1013 hPa | 0 mm | - | - | - |
| 1777828154 | 23.89° C | 18% | 1013 hPa | 0 mm | - | - | - |
| 1777827434 | 24.44° C | 17% | 1013 hPa | 0 mm | - | - | - |
| 1777826715 | 24.44° C | 16% | 1013 hPa | 0 mm | - | - | - |
| 1777825995 | 24.44° C | 16% | 1013 hPa | 0 mm | - | - | - |
| 1777825274 | 24.44° C | 15% | 1013 hPa | 0 mm | - | - | - |
| 1777824554 | 25° C | 13% | 1013 hPa | 0 mm | - | - | - |
| 1777823834 | 25° C | 13% | 1013 hPa | 0 mm | - | - | - |
| 1777823114 | 25° C | 13% | 1013 hPa | 0 mm | - | - | - |
| 1777822394 | 25° C | 12% | 1013 hPa | 0 mm | - | - | - |
| 1777821674 | 25.56° C | 13% | 1013 hPa | 0 mm | - | - | - |
| 1777820954 | 25° C | 14% | 1014 hPa | 0 mm | - | - | - |
| 1777820234 | 25° C | 14% | 1014 hPa | 0 mm | - | - | - |
| 1777819514 | 25° C | 14% | 1014 hPa | 0 mm | - | - | - |
| 1777818794 | 25° C | 15% | 1014 hPa | 0 mm | - | - | - |
| 1777818074 | 25° C | 15% | 1014 hPa | 0 mm | - | - | - |
| 1777816635 | 24.44° C | 15% | 1014 hPa | 0 mm | - | - | - |
| 1777815914 | 24.44° C | 18% | 1015 hPa | 0 mm | - | - | - |
* Rain latest hour (hover to see other rain measurements)
** Current wind speed in m/s (hover to see current wind gust speed)